Flight Track Log - Related Links

Times and Time Zones

All times are in EDT time to prevent confusion due to time zone crossing. See the SCX8873 flight status page for this flight to view local times or setup timezone preferences in your user account.

Time Position Orientation Groundspeed Altitude Reporting Facility
EDT Latitude Longitude Course Direction KTS MPH feet Rate Location/Type
Wed 05:07:56 PM 44.5239 -88.2039 183° South 246 283 4,700  Level Minneapolis Center
Wed 05:08:58 PM 44.4453 -88.2097 183° South 246 283 7,600 2,832 Climbing Minneapolis Center
Wed 05:10:01 PM 44.3722 -88.2133 182° South 258 297 10,600 2,352 Climbing Minneapolis Center
Wed 05:11:03 PM 44.2900 -88.2178 182° South 289 333 12,500 2,274 Climbing Minneapolis Center
Wed 05:12:00 PM 43.8093 -88.2026 183° South  Level FlightAware Approximate
Wed 05:12:05 PM 44.1969 -88.2236 183° South 327 376 15,300  Level Minneapolis Center
Wed 05:13:00 PM 43.6964 -88.2096 183° South  Level FlightAware Approximate
Wed 05:13:07 PM 44.0986 -88.2286 182° South 347 399 17,700  Level Minneapolis Center
Wed 05:14:09 PM 43.9936 -88.2350 183° South 370 426 20,200 2,516 Climbing Minneapolis Center
Wed 05:15:11 PM 43.8681 -88.2419 182° South 383 441 22,900 2,323 Climbing Minneapolis Center
Wed 05:16:13 PM 43.7567 -88.2478 182° South 396 456 25,000 1,790 Climbing Minneapolis Center
Wed 05:17:15 PM 43.6425 -88.2544 182° South 404 465 26,600 1,548 Climbing Minneapolis Center
Wed 05:18:17 PM 43.5231 -88.2611 182° South 420 483 28,200 1,548 Climbing Minneapolis Center
Wed 05:19:19 PM 43.3986 -88.2675 182° South 434 499 29,800 1,694 Climbing Minneapolis Center
Wed 05:20:21 PM 43.2744 -88.2747 182° South 440 506 31,700 1,727 Climbing Minneapolis Center
Wed 05:21:31 PM 43.1325 -88.2814 182° South 437 503 33,600 1,500 Climbing Chicago Center
Wed 05:22:33 PM 43.0144 -88.2447 167° South 436 502 35,000 1,355 Climbing Chicago Center
Wed 05:23:35 PM 42.8769 -88.1947 165° South 439 505 36,400 1,210 Climbing Chicago Center
Wed 05:24:37 PM 42.7600 -88.1514 165° South 436 502 37,500 1,210 Climbing Chicago Center
Wed 05:25:39 PM 42.6442 -88.1081 165° South 432 497 38,900 726 Climbing Chicago Center
Wed 05:26:41 PM 42.5300 -88.0653 165° South 426 490 39,000 48 Climbing Chicago Center
Wed 05:27:43 PM 42.4167 -88.0242 165° South 422 486 39,000  Level Chicago Center
Wed 05:28:45 PM 42.3033 -87.9842 165° South 421 484 39,000  Level Chicago Center
Wed 05:29:48 PM 42.1925 -87.9392 163° South 418 481 39,000  Level Chicago Center
Wed 05:30:50 PM 42.0625 -87.8667 158° South 420 483 39,000  Level Chicago Center
Wed 05:31:52 PM 41.9556 -87.8089 158° South 416 479 39,000  Level Chicago Center
Wed 05:32:54 PM 41.8464 -87.7486 158° South 422 486 39,000  Level Chicago Center
Wed 05:33:56 PM 41.7375 -87.6894 158° South 422 486 39,000  Level Chicago Center
Wed 05:34:58 PM 41.6269 -87.6311 158° South 424 488 39,000  Level Chicago Center
Wed 05:36:00 PM 41.5169 -87.5725 158° South 425 489 39,000  Level Chicago Center
Wed 05:37:02 PM 41.3853 -87.5022 158° South 424 488 39,000  Level Chicago Center
Wed 05:38:04 PM 41.2739 -87.4433 158° South 428 493 39,000  Level Chicago Center
Wed 05:39:06 PM 41.1619 -87.3842 158° South 432 497 39,000  Level Chicago Center
Wed 05:40:08 PM 41.0497 -87.3269 159° South 433 498 39,000  Level Chicago Center
Wed 05:41:11 PM 40.9386 -87.2683 158° South 431 496 39,000  Level Chicago Center
Wed 05:42:13 PM 40.8253 -87.2097 159° South 437 503 39,000  Level Chicago Center
Wed 05:43:15 PM 40.6906 -87.1394 158° South 436 502 39,000  Level Chicago Center
Wed 05:44:17 PM 40.5722 -87.0789 159° South 440 506 39,000  Level Chicago Center
Wed 05:45:19 PM 40.4617 -87.0103 155° Southeast 436 502 39,000  Level Chicago Center
Wed 05:46:21 PM 40.3511 -86.9400 154° Southeast 439 505 39,000  Level Chicago Center
Wed 05:47:23 PM 40.2406 -86.8703 154° Southeast 438 504 39,000  Level Chicago Center
Wed 05:48:25 PM 40.1272 -86.8017 155° Southeast 443 510 39,000  Level Chicago Center
Wed 05:48:51 PM 40.0708 -86.7650 154° Southeast 444 511 39,000  Level Indianapolis Center
Wed 05:49:53 PM 39.9603 -86.6964 155° Southeast 440 506 39,000  Level Indianapolis Center
Wed 05:50:55 PM 39.8500 -86.6283 155° Southeast 438 504 39,000  Level Indianapolis Center
Wed 05:51:57 PM 39.7222 -86.5508 155° Southeast 437 503 39,000  Level Indianapolis Center
Wed 05:53:00 PM 39.6131 -86.4831 154° Southeast 438 504 39,000  Level Indianapolis Center
Wed 05:54:02 PM 39.5044 -86.4156 154° Southeast 436 502 39,000  Level Indianapolis Center
Wed 05:55:04 PM 39.3944 -86.3492 155° Southeast 436 502 39,000  Level Indianapolis Center
Wed 05:56:06 PM 39.2836 -86.2814 155° Southeast 437 503 39,000  Level Indianapolis Center
Wed 05:57:08 PM 39.1553 -86.2025 155° Southeast 436 502 39,000  Level Indianapolis Center
Wed 05:58:10 PM 39.0450 -86.1364 155° Southeast 435 501 39,000  Level Indianapolis Center
Wed 05:59:12 PM 38.9364 -86.0717 155° Southeast 432 497 39,000  Level Indianapolis Center
Wed 06:00:14 PM 38.8347 -86.0100 155° Southeast 431 496 39,000  Level Indianapolis Center
Wed 06:01:16 PM 38.7247 -85.9447 155° Southeast 432 497 39,000  Level Indianapolis Center
Wed 06:02:18 PM 38.5942 -85.8658 155° Southeast 430 495 39,000  Level Indianapolis Center
Wed 06:03:20 PM 38.4833 -85.8014 156° South 432 497 39,000  Level Indianapolis Center
Wed 06:04:22 PM 38.3731 -85.7353 155° Southeast 434 499 39,000  Level Indianapolis Center
Wed 06:05:24 PM 38.2628 -85.6708 155° Southeast 435 501 39,000  Level Indianapolis Center
Wed 06:06:26 PM 38.1542 -85.6067 155° Southeast 429 494 39,000  Level Indianapolis Center
Wed 06:07:28 PM 38.0369 -85.5597 162° South 440 506 39,000  Level Indianapolis Center
Wed 06:08:30 PM 37.9214 -85.5281 168° South 426 490 39,000  Level Indianapolis Center
Wed 06:09:33 PM 37.7839 -85.4911 168° South 420 483 39,000  Level Indianapolis Center
Wed 06:10:35 PM 37.6692 -85.4592 168° South 421 484 39,000  Level Indianapolis Center
Wed 06:11:37 PM 37.5539 -85.4297 169° South 423 487 39,000  Level Indianapolis Center
Wed 06:12:39 PM 37.4392 -85.4008 169° South 423 487 39,000  Level Indianapolis Center
Wed 06:13:41 PM 37.3253 -85.3681 167° South 420 483 39,000  Level Indianapolis Center
Wed 06:14:43 PM 37.1906 -85.3333 168° South 422 486 39,000  Level Indianapolis Center
Wed 06:15:45 PM 37.0753 -85.3033 168° South 423 487 39,000  Level Indianapolis Center
Wed 06:16:47 PM 36.9711 -85.2761 168° South 419 482 39,000  Level Indianapolis Center
Wed 06:17:49 PM 36.8564 -85.2456 168° South 420 483 39,000  Level Indianapolis Center
Wed 06:18:51 PM 36.7208 -85.2106 168° South 415 478 39,000  Level Indianapolis Center
Wed 06:19:53 PM 36.6083 -85.1814 168° South 415 478 39,000  Level Indianapolis Center
Wed 06:20:55 PM 36.4958 -85.1511 168° South 413 475 39,000  Level Indianapolis Center
Wed 06:21:57 PM 36.3831 -85.1231 169° South 412 474 39,000  Level Indianapolis Center
Wed 06:22:59 PM 36.2711 -85.0939 168° South 412 474 39,000  Level Indianapolis Center
Wed 06:24:01 PM 36.1586 -85.0644 168° South 413 475 39,000  Level Indianapolis Center
Wed 06:24:40 PM 36.0689 -85.0456 170° South 413 475 39,000  Level Atlanta Center
Wed 06:25:40 PM 35.9542 -85.0161 168° South 413 475 39,000  Level Atlanta Center
Wed 06:26:40 PM 35.8522 -84.9867 167° South 420 483 39,000  Level Atlanta Center
Wed 06:27:40 PM 35.7356 -84.9622 170° South 425 489 39,000  Level Atlanta Center
Wed 06:28:40 PM 35.6253 -84.9303 167° South 425 489 39,000  Level Atlanta Center
Wed 06:29:40 PM 35.5150 -84.9036 169° South 419 482 39,000  Level Atlanta Center
Wed 06:30:40 PM 35.4047 -84.8744 168° South 409 471 39,000  Level Atlanta Center
Wed 06:31:40 PM 35.2942 -84.8481 169° South 409 471 39,000  Level Atlanta Center
Wed 06:32:40 PM 35.1817 -84.8189 168° South 409 471 39,000  Level Atlanta Center
Wed 06:33:40 PM 35.0733 -84.7900 168° South 409 471 39,000  Level Atlanta Center
Wed 06:34:40 PM 34.9650 -84.7661 170° South 409 471 39,000  Level Atlanta Center
Wed 06:35:40 PM 34.8567 -84.7375 168° South 409 471 39,000  Level Atlanta Center
Wed 06:36:40 PM 34.7503 -84.7111 168° South 404 465 39,000  Level Atlanta Center
Wed 06:37:40 PM 34.6378 -84.6800 167° South 388 447 39,000  Level Atlanta Center
Wed 06:38:40 PM 34.5317 -84.6539 169° South 388 447 39,000  Level Atlanta Center
Wed 06:39:40 PM 34.4231 -84.6281 169° South 388 447 39,000  Level Atlanta Center
Wed 06:40:40 PM 34.3169 -84.6022 169° South 393 452 39,000  Level Atlanta Center
Wed 06:41:40 PM 34.2125 -84.5764 168° South 385 443 39,000  Level Atlanta Center
Wed 06:42:40 PM 34.1106 -84.5556 170° South 392 451 39,000  Level Atlanta Center
Wed 06:43:40 PM 34.0061 -84.5275 167° South 397 457 39,000  Level Atlanta Center
Wed 06:44:40 PM 33.8997 -84.5042 170° South 397 457 39,000  Level Atlanta Center
Wed 06:45:40 PM 33.7914 -84.4936 175° South 397 457 39,000  Level Atlanta Center
Wed 06:46:40 PM 33.6908 -84.5431 202° Southwest 366 421 39,000  Level Atlanta Center
Wed 06:47:40 PM 33.5842 -84.6022 205° Southwest 384 442 39,000  Level Atlanta Center
Wed 06:48:40 PM 33.4800 -84.5642 163° South 367 422 39,000  Level Atlanta Center
Wed 06:49:40 PM 33.3800 -84.5139 157° South 383 441 39,000  Level Atlanta Center
Wed 06:50:40 PM 33.2800 -84.4636 157° South 395 455 39,000  Level Atlanta Center
Wed 06:51:40 PM 33.1883 -84.4211 159° South 390 449 39,000  Level Atlanta Center
Wed 06:52:40 PM 33.0861 -84.3736 159° South 395 455 39,000  Level Atlanta Center
Wed 06:53:40 PM 32.9842 -84.3236 158° South 389 448 39,000  Level Atlanta Center
Wed 06:54:40 PM 32.8861 -84.2614 152° Southeast 394 453 39,000  Level Atlanta Center
Wed 06:55:40 PM 32.7881 -84.1969 151° Southeast 399 459 39,000  Level Atlanta Center
Wed 06:56:40 PM 32.6817 -84.1253 150° Southeast 399 459 39,000  Level Atlanta Center
Wed 06:57:40 PM 32.5814 -84.0611 152° Southeast 404 465 39,000  Level Atlanta Center
Wed 06:58:40 PM 32.4792 -83.9994 153° Southeast 409 471 39,000  Level Atlanta Center
Wed 07:00:28 PM 32.2964 -83.8806 151° Southeast 418 481 39,000  Level Jacksonville Center
Wed 07:01:28 PM 32.1967 -83.8181 152° Southeast 418 481 39,000  Level Jacksonville Center
Wed 07:02:28 PM 32.0947 -83.7533 152° Southeast 412 474 39,000 -500 Level Jacksonville Center
Wed 07:03:28 PM 31.9969 -83.6911 152° Southeast 412 474 38,000 -950 Descending Jacksonville Center
Wed 07:04:28 PM 31.8992 -83.6267 151° Southeast 407 468 37,100 -950 Descending Jacksonville Center
Wed 07:05:28 PM 31.7972 -83.5622 152° Southeast 407 468 36,100 -950 Descending Jacksonville Center
Wed 07:06:28 PM 31.6933 -83.4981 152° Southeast 415 478 35,200 -750 Descending Jacksonville Center
Wed 07:07:28 PM 31.5869 -83.4364 154° Southeast 420 483 34,600 -750 Descending Jacksonville Center
Wed 07:08:28 PM 31.4808 -83.3700 152° Southeast 425 489 33,700 -850 Descending Jacksonville Center
Wed 07:09:28 PM 31.3828 -83.3111 153° Southeast 430 495 32,900 -850 Descending Jacksonville Center
Wed 07:10:28 PM 31.2703 -83.2475 154° Southeast 435 501 32,000 -950 Descending Jacksonville Center
Wed 07:11:28 PM 31.1597 -83.1792 152° Southeast 440 506 31,000 -500 Descending Jacksonville Center
Wed 07:12:28 PM 31.0514 -83.1061 150° Southeast 445 512 31,000  Level Jacksonville Center
Wed 07:13:28 PM 30.9408 -83.0378 152° Southeast 451 519 31,000 -500 Level Jacksonville Center
Wed 07:14:28 PM 30.8219 -82.9653 152° Southeast 443 510 30,000 -1,900 Descending Jacksonville Center
Wed 07:15:28 PM 30.7197 -82.9069 154° Southeast 443 510 27,200 -1,900 Descending Jacksonville Center
Wed 07:16:28 PM 30.6089 -82.8394 152° Southeast 443 510 26,200 -1,050 Descending Jacksonville Center
Wed 07:17:28 PM 30.4919 -82.7625 150° Southeast 443 510 25,100 -600 Descending Jacksonville Center
Wed 07:18:28 PM 30.3853 -82.7000 153° Southeast 443 510 25,000 -100 Descending Jacksonville Center
Wed 07:19:28 PM 30.2997 -82.6472 152° Southeast 433 498 24,900  Descending Jacksonville Center
Wed 07:20:28 PM 30.1783 -82.5803 155° Southeast 433 498 25,000 50 Climbing Jacksonville Center
Wed 07:21:28 PM 30.0592 -82.5086 152° Southeast 433 498 25,000 -50 Level Jacksonville Center
Wed 07:22:28 PM 29.9506 -82.4492 155° Southeast 428 493 24,900 -50 Descending Jacksonville Center
Wed 07:23:28 PM 29.8375 -82.3944 157° South 428 493 24,900 50 Level Jacksonville Center
Wed 07:24:28 PM 29.7372 -82.3425 156° South 438 504 25,000 50 Climbing Jacksonville Center
Wed 07:25:28 PM 29.6242 -82.2881 157° South 443 510 25,000  Level Jacksonville Center
Wed 07:26:28 PM 29.5092 -82.2339 158° South 443 510 25,000 -1,100 Level Jacksonville Center
Wed 07:27:28 PM 29.3961 -82.1797 157° South 443 510 22,800 -2,450 Descending Jacksonville Center
Wed 07:28:28 PM 29.2892 -82.1283 157° South 438 504 20,100 -2,500 Descending Jacksonville Center
Wed 07:29:28 PM 29.1931 -82.0814 157° South 407 468 17,800 -1,750 Descending Jacksonville Center
Wed 07:30:28 PM 29.1050 -82.0394 157° South 368 423 16,600 -1,550 Descending Jacksonville Center
Wed 07:31:28 PM 29.0214 -81.9997 157° South 343 395 14,700 -1,800 Descending Jacksonville Center
Wed 07:32:28 PM 28.9394 -81.9603 157° South 327 376 13,000 -1,800 Descending Jacksonville Center
Wed 07:33:28 PM 28.8619 -81.9111 151° Southeast 321 369 11,100 -1,150 Descending Jacksonville Center
Wed 07:34:28 PM 28.7969 -81.8503 141° Southeast 308 354 10,700 -585 Descending Jacksonville Center
Wed 07:34:50 PM 28.7667 -81.8167 136° Southeast 286 329 10,300 -1,244 Descending Orlando TRACON
Wed 07:35:50 PM 28.7167 -81.7667 139° Southeast 263 303 9,000 -1,350 Descending Orlando TRACON
Wed 07:36:50 PM 28.6500 -81.7167 147° Southeast 256 295 7,600 -1,400 Descending Orlando TRACON
Wed 07:37:50 PM 28.6000 -81.6667 139° Southeast 252 290 6,200 -800 Descending Orlando TRACON
Wed 07:38:50 PM 28.5500 -81.6167 139° Southeast 227 261 6,000 -100 Descending Orlando TRACON
Wed 07:39:50 PM 28.5167 -81.5667 127° Southeast 216 249 6,000 -100 Level Orlando TRACON
Wed 07:40:50 PM 28.4667 -81.5333 150° Southeast 220 253 5,800 -476 Descending Orlando TRACON
Wed 07:41:56 PM 28.4167 -81.4833 139° Southeast 217 250 5,000 -636 Descending Orlando TRACON
Wed 07:43:02 PM 28.3667 -81.4333 139° Southeast 222 255 4,400 -714 Descending Orlando TRACON
Wed 07:44:02 PM 28.3167 -81.3833 139° Southeast 221 254 3,500 -789 Descending Orlando TRACON
Wed 07:44:56 PM 28.2667 -81.3833 180° South 225 259 2,900 -842 Descending Orlando TRACON
Wed 07:45:56 PM 28.2500 -81.3333 111° Southeast 211 243 1,900 -650 Descending Orlando TRACON
Wed 07:46:56 PM 28.3000 -81.3167 16° North 207 238 1,600 -263 Descending Orlando TRACON
Wed 07:47:50 PM 28.3500 -81.3167 360° North 161 185 1,400 -222 Descending Orlando TRACON
Wed 07:49:00 PM 28.4167 -81.3000 24° Northeast  Level FlightAware Approximate
Wed 07:56:00 PM 28.4294 -81.3090 24° Northeast  Level Estimated
Wed 07:57:00 PM 28.4294 -81.3090 24° Northeast  Level Estimated
Wed 07:58:00 PM 28.4294 -81.3090 24° Northeast  Level Estimated
Wed 07:59:00 PM 28.4294 -81.3090 24° Northeast  Level Estimated
Wed 08:00:00 PM 28.4294 -81.3090 24° Northeast  Level Estimated

Login

Don't have an account? Register now (free) for customized features, flight alerts, and more!